sensor_id;sensor_type;location;lat;lon;timestamp;P1;durP1;ratioP1;P2;durP2;ratioP2
5191;SDS011;2615;44.524;11.284;2023-04-24T00:01:48;10.30;;;5.50;;
5191;SDS011;2615;44.524;11.284;2023-04-24T00:04:18;10.70;;;6.63;;
5191;SDS011;2615;44.524;11.284;2023-04-24T00:06:46;9.47;;;5.97;;
5191;SDS011;2615;44.524;11.284;2023-04-24T00:09:19;8.53;;;5.37;;
5191;SDS011;2615;44.524;11.284;2023-04-24T00:11:47;6.37;;;5.77;;
5191;SDS011;2615;44.524;11.284;2023-04-24T00:14:17;11.20;;;6.27;;
5191;SDS011;2615;44.524;11.284;2023-04-24T00:16:45;9.83;;;6.03;;
5191;SDS011;2615;44.524;11.284;2023-04-24T00:19:13;7.40;;;6.60;;
5191;SDS011;2615;44.524;11.284;2023-04-24T00:21:41;7.70;;;5.93;;
5191;SDS011;2615;44.524;11.284;2023-04-24T00:24:09;8.30;;;6.70;;
5191;SDS011;2615;44.524;11.284;2023-04-24T00:26:37;10.20;;;6.13;;
5191;SDS011;2615;44.524;11.284;2023-04-24T00:29:06;9.00;;;6.43;;
5191;SDS011;2615;44.524;11.284;2023-04-24T00:31:35;8.07;;;5.57;;
5191;SDS011;2615;44.524;11.284;2023-04-24T00:34:03;8.70;;;5.47;;
5191;SDS011;2615;44.524;11.284;2023-04-24T00:36:32;10.93;;;7.10;;
5191;SDS011;2615;44.524;11.284;2023-04-24T00:39:01;10.77;;;5.60;;
5191;SDS011;2615;44.524;11.284;2023-04-24T00:41:29;7.40;;;5.57;;
5191;SDS011;2615;44.524;11.284;2023-04-24T00:43:57;6.80;;;6.00;;
5191;SDS011;2615;44.524;11.284;2023-04-24T00:46:26;7.27;;;6.50;;
5191;SDS011;2615;44.524;11.284;2023-04-24T00:48:56;7.70;;;4.97;;
5191;SDS011;2615;44.524;11.284;2023-04-24T00:51:24;7.17;;;5.50;;
5191;SDS011;2615;44.524;11.284;2023-04-24T00:53:53;6.00;;;5.07;;
5191;SDS011;2615;44.524;11.284;2023-04-24T00:56:21;7.70;;;5.30;;
5191;SDS011;2615;44.524;11.284;2023-04-24T00:58:49;6.10;;;5.43;;
5191;SDS011;2615;44.524;11.284;2023-04-24T01:01:17;5.90;;;5.30;;
5191;SDS011;2615;44.524;11.284;2023-04-24T01:03:48;7.20;;;5.07;;
5191;SDS011;2615;44.524;11.284;2023-04-24T01:06:19;9.80;;;6.00;;
5191;SDS011;2615;44.524;11.284;2023-04-24T01:08:49;8.20;;;5.40;;
5191;SDS011;2615;44.524;11.284;2023-04-24T01:11:17;9.90;;;5.90;;
5191;SDS011;2615;44.524;11.284;2023-04-24T01:13:45;7.57;;;5.53;;
5191;SDS011;2615;44.524;11.284;2023-04-24T01:16:14;7.93;;;5.37;;
5191;SDS011;2615;44.524;11.284;2023-04-24T01:18:43;10.00;;;5.93;;
5191;SDS011;2615;44.524;11.284;2023-04-24T01:21:12;10.60;;;5.87;;
5191;SDS011;2615;44.524;11.284;2023-04-24T01:23:44;15.43;;;6.10;;
5191;SDS011;2615;44.524;11.284;2023-04-24T01:26:13;11.23;;;6.30;;
5191;SDS011;2615;44.524;11.284;2023-04-24T01:28:42;7.00;;;6.30;;
5191;SDS011;2615;44.524;11.284;2023-04-24T01:31:11;11.60;;;5.63;;
5191;SDS011;2615;44.524;11.284;2023-04-24T01:33:39;11.00;;;6.50;;
5191;SDS011;2615;44.524;11.284;2023-04-24T01:36:08;6.27;;;5.23;;
5191;SDS011;2615;44.524;11.284;2023-04-24T01:38:38;8.77;;;5.67;;
5191;SDS011;2615;44.524;11.284;2023-04-24T01:41:08;6.70;;;5.53;;
5191;SDS011;2615;44.524;11.284;2023-04-24T01:43:36;5.93;;;5.33;;
5191;SDS011;2615;44.524;11.284;2023-04-24T01:46:05;8.07;;;5.50;;
5191;SDS011;2615;44.524;11.284;2023-04-24T01:48:33;8.27;;;5.43;;
5191;SDS011;2615;44.524;11.284;2023-04-24T01:51:02;8.20;;;6.40;;
5191;SDS011;2615;44.524;11.284;2023-04-24T01:53:31;8.83;;;5.90;;
5191;SDS011;2615;44.524;11.284;2023-04-24T01:55:59;7.70;;;5.57;;
5191;SDS011;2615;44.524;11.284;2023-04-24T01:58:29;8.10;;;5.93;;
5191;SDS011;2615;44.524;11.284;2023-04-24T02:00:57;6.93;;;5.50;;
5191;SDS011;2615;44.524;11.284;2023-04-24T02:03:26;9.20;;;6.20;;
5191;SDS011;2615;44.524;11.284;2023-04-24T02:05:55;6.63;;;4.70;;
5191;SDS011;2615;44.524;11.284;2023-04-24T02:08:23;7.23;;;4.97;;
5191;SDS011;2615;44.524;11.284;2023-04-24T02:10:51;8.23;;;5.83;;
5191;SDS011;2615;44.524;11.284;2023-04-24T02:13:19;7.20;;;5.50;;
5191;SDS011;2615;44.524;11.284;2023-04-24T02:15:49;7.57;;;5.93;;
5191;SDS011;2615;44.524;11.284;2023-04-24T02:18:17;8.23;;;5.73;;
5191;SDS011;2615;44.524;11.284;2023-04-24T02:20:45;10.40;;;6.03;;
5191;SDS011;2615;44.524;11.284;2023-04-24T02:23:13;7.63;;;5.87;;
5191;SDS011;2615;44.524;11.284;2023-04-24T02:25:41;8.00;;;6.17;;
5191;SDS011;2615;44.524;11.284;2023-04-24T02:28:09;8.07;;;5.50;;
5191;SDS011;2615;44.524;11.284;2023-04-24T02:30:37;7.27;;;5.73;;
5191;SDS011;2615;44.524;11.284;2023-04-24T02:33:07;8.33;;;6.40;;
5191;SDS011;2615;44.524;11.284;2023-04-24T02:35:35;8.03;;;7.07;;
5191;SDS011;2615;44.524;11.284;2023-04-24T02:38:03;9.17;;;5.80;;
5191;SDS011;2615;44.524;11.284;2023-04-24T02:40:31;6.80;;;5.40;;
5191;SDS011;2615;44.524;11.284;2023-04-24T02:42:59;8.23;;;5.87;;
5191;SDS011;2615;44.524;11.284;2023-04-24T02:45:27;8.00;;;6.10;;
5191;SDS011;2615;44.524;11.284;2023-04-24T02:47:56;7.23;;;6.03;;
5191;SDS011;2615;44.524;11.284;2023-04-24T02:50:25;10.73;;;6.30;;
5191;SDS011;2615;44.524;11.284;2023-04-24T02:52:53;13.23;;;6.40;;
5191;SDS011;2615;44.524;11.284;2023-04-24T02:55:21;6.93;;;5.83;;
5191;SDS011;2615;44.524;11.284;2023-04-24T02:57:49;8.63;;;6.30;;
5191;SDS011;2615;44.524;11.284;2023-04-24T03:00:18;7.50;;;6.00;;
5191;SDS011;2615;44.524;11.284;2023-04-24T03:02:46;9.00;;;6.63;;
5191;SDS011;2615;44.524;11.284;2023-04-24T03:05:15;11.50;;;6.10;;
5191;SDS011;2615;44.524;11.284;2023-04-24T03:07:45;7.47;;;6.37;;
5191;SDS011;2615;44.524;11.284;2023-04-24T03:10:13;8.13;;;6.73;;
5191;SDS011;2615;44.524;11.284;2023-04-24T03:12:41;10.80;;;6.60;;
5191;SDS011;2615;44.524;11.284;2023-04-24T03:15:09;8.40;;;6.53;;
5191;SDS011;2615;44.524;11.284;2023-04-24T03:17:38;11.13;;;7.10;;
5191;SDS011;2615;44.524;11.284;2023-04-24T03:20:06;12.10;;;7.03;;
5191;SDS011;2615;44.524;11.284;2023-04-24T03:22:36;10.93;;;7.90;;
5191;SDS011;2615;44.524;11.284;2023-04-24T03:25:05;13.23;;;8.30;;
5191;SDS011;2615;44.524;11.284;2023-04-24T03:27:35;14.03;;;7.67;;
5191;SDS011;2615;44.524;11.284;2023-04-24T03:30:04;14.70;;;9.10;;
5191;SDS011;2615;44.524;11.284;2023-04-24T03:32:33;10.17;;;7.83;;
5191;SDS011;2615;44.524;11.284;2023-04-24T03:35:01;9.93;;;7.57;;
5191;SDS011;2615;44.524;11.284;2023-04-24T03:37:29;9.80;;;8.00;;
5191;SDS011;2615;44.524;11.284;2023-04-24T03:39:57;8.10;;;6.67;;
5191;SDS011;2615;44.524;11.284;2023-04-24T03:42:27;10.33;;;8.03;;
5191;SDS011;2615;44.524;11.284;2023-04-24T03:44:55;9.47;;;7.97;;
5191;SDS011;2615;44.524;11.284;2023-04-24T03:47:23;9.30;;;8.40;;
5191;SDS011;2615;44.524;11.284;2023-04-24T03:49:51;14.60;;;8.70;;
5191;SDS011;2615;44.524;11.284;2023-04-24T03:52:20;11.77;;;8.57;;
5191;SDS011;2615;44.524;11.284;2023-04-24T03:54:48;11.23;;;8.07;;
5191;SDS011;2615;44.524;11.284;2023-04-24T03:57:16;13.27;;;7.73;;
5191;SDS011;2615;44.524;11.284;2023-04-24T03:59:46;12.00;;;9.57;;
5191;SDS011;2615;44.524;11.284;2023-04-24T04:02:14;10.40;;;8.97;;
5191;SDS011;2615;44.524;11.284;2023-04-24T04:04:43;13.27;;;9.20;;
5191;SDS011;2615;44.524;11.284;2023-04-24T04:07:11;9.47;;;8.40;;
5191;SDS011;2615;44.524;11.284;2023-04-24T04:09:39;9.50;;;8.50;;
5191;SDS011;2615;44.524;11.284;2023-04-24T04:12:08;11.40;;;8.67;;
5191;SDS011;2615;44.524;11.284;2023-04-24T04:14:36;10.23;;;9.10;;
5191;SDS011;2615;44.524;11.284;2023-04-24T04:17:05;9.90;;;8.13;;
5191;SDS011;2615;44.524;11.284;2023-04-24T04:19:33;13.07;;;9.67;;
5191;SDS011;2615;44.524;11.284;2023-04-24T04:22:02;10.57;;;9.43;;
5191;SDS011;2615;44.524;11.284;2023-04-24T04:24:30;15.23;;;10.10;;
5191;SDS011;2615;44.524;11.284;2023-04-24T04:26:58;12.47;;;9.53;;
5191;SDS011;2615;44.524;11.284;2023-04-24T04:29:26;14.20;;;10.00;;
5191;SDS011;2615;44.524;11.284;2023-04-24T04:31:54;15.13;;;10.00;;
5191;SDS011;2615;44.524;11.284;2023-04-24T04:34:24;18.50;;;10.10;;
5191;SDS011;2615;44.524;11.284;2023-04-24T04:36:52;14.20;;;10.10;;
5191;SDS011;2615;44.524;11.284;2023-04-24T04:39:20;11.10;;;9.83;;
5191;SDS011;2615;44.524;11.284;2023-04-24T04:41:49;18.30;;;10.50;;
5191;SDS011;2615;44.524;11.284;2023-04-24T04:44:17;11.53;;;9.43;;
5191;SDS011;2615;44.524;11.284;2023-04-24T04:46:45;15.03;;;9.57;;
5191;SDS011;2615;44.524;11.284;2023-04-24T04:49:13;16.23;;;9.20;;
5191;SDS011;2615;44.524;11.284;2023-04-24T04:51:44;11.67;;;10.47;;
5191;SDS011;2615;44.524;11.284;2023-04-24T04:54:13;19.47;;;10.23;;
5191;SDS011;2615;44.524;11.284;2023-04-24T04:56:42;14.40;;;10.20;;
5191;SDS011;2615;44.524;11.284;2023-04-24T04:59:10;14.77;;;10.40;;
5191;SDS011;2615;44.524;11.284;2023-04-24T05:01:38;16.57;;;10.83;;
5191;SDS011;2615;44.524;11.284;2023-04-24T05:04:06;12.13;;;9.33;;
5191;SDS011;2615;44.524;11.284;2023-04-24T05:06:35;19.80;;;10.73;;
5191;SDS011;2615;44.524;11.284;2023-04-24T05:09:04;11.87;;;10.43;;
5191;SDS011;2615;44.524;11.284;2023-04-24T05:11:33;14.90;;;10.27;;
5191;SDS011;2615;44.524;11.284;2023-04-24T05:14:01;15.90;;;10.47;;
5191;SDS011;2615;44.524;11.284;2023-04-24T05:16:29;15.03;;;9.87;;
5191;SDS011;2615;44.524;11.284;2023-04-24T05:18:58;16.17;;;10.90;;
5191;SDS011;2615;44.524;11.284;2023-04-24T05:21:26;14.43;;;10.33;;
5191;SDS011;2615;44.524;11.284;2023-04-24T05:23:54;11.93;;;10.37;;
5191;SDS011;2615;44.524;11.284;2023-04-24T05:26:23;48.03;;;13.10;;
5191;SDS011;2615;44.524;11.284;2023-04-24T05:28:52;18.60;;;12.10;;
5191;SDS011;2615;44.524;11.284;2023-04-24T05:31:20;14.97;;;11.30;;
5191;SDS011;2615;44.524;11.284;2023-04-24T05:33:48;17.87;;;11.83;;
5191;SDS011;2615;44.524;11.284;2023-04-24T05:36:16;20.57;;;11.73;;
5191;SDS011;2615;44.524;11.284;2023-04-24T05:38:44;17.70;;;11.60;;
5191;SDS011;2615;44.524;11.284;2023-04-24T05:41:12;13.00;;;11.17;;
5191;SDS011;2615;44.524;11.284;2023-04-24T05:43:42;13.83;;;11.60;;
5191;SDS011;2615;44.524;11.284;2023-04-24T05:46:11;18.43;;;11.10;;
5191;SDS011;2615;44.524;11.284;2023-04-24T05:48:39;15.00;;;12.07;;
5191;SDS011;2615;44.524;11.284;2023-04-24T05:51:09;25.33;;;14.93;;
5191;SDS011;2615;44.524;11.284;2023-04-24T05:53:37;16.00;;;13.00;;
5191;SDS011;2615;44.524;11.284;2023-04-24T05:56:05;19.80;;;13.90;;
5191;SDS011;2615;44.524;11.284;2023-04-24T05:58:33;21.00;;;15.67;;
5191;SDS011;2615;44.524;11.284;2023-04-24T06:01:03;22.90;;;15.67;;
5191;SDS011;2615;44.524;11.284;2023-04-24T06:03:31;21.77;;;15.67;;
5191;SDS011;2615;44.524;11.284;2023-04-24T06:05:59;30.70;;;15.27;;
5191;SDS011;2615;44.524;11.284;2023-04-24T06:08:28;21.00;;;16.00;;
5191;SDS011;2615;44.524;11.284;2023-04-24T06:10:56;23.63;;;16.57;;
5191;SDS011;2615;44.524;11.284;2023-04-24T06:13:24;20.03;;;15.40;;
5191;SDS011;2615;44.524;11.284;2023-04-24T06:15:52;17.93;;;15.20;;
5191;SDS011;2615;44.524;11.284;2023-04-24T06:18:22;21.17;;;16.40;;
5191;SDS011;2615;44.524;11.284;2023-04-24T06:20:50;20.00;;;16.07;;
5191;SDS011;2615;44.524;11.284;2023-04-24T06:23:18;22.80;;;17.07;;
5191;SDS011;2615;44.524;11.284;2023-04-24T06:25:46;23.30;;;17.93;;
5191;SDS011;2615;44.524;11.284;2023-04-24T06:28:15;22.07;;;16.90;;
5191;SDS011;2615;44.524;11.284;2023-04-24T06:30:48;20.47;;;16.83;;
5191;SDS011;2615;44.524;11.284;2023-04-24T06:33:16;24.70;;;18.73;;
5191;SDS011;2615;44.524;11.284;2023-04-24T06:35:48;23.23;;;17.73;;
5191;SDS011;2615;44.524;11.284;2023-04-24T06:38:17;22.53;;;17.57;;
5191;SDS011;2615;44.524;11.284;2023-04-24T06:40:45;21.70;;;18.00;;
5191;SDS011;2615;44.524;11.284;2023-04-24T06:43:13;24.60;;;17.10;;
5191;SDS011;2615;44.524;11.284;2023-04-24T06:45:41;22.13;;;17.10;;
5191;SDS011;2615;44.524;11.284;2023-04-24T06:48:10;26.27;;;18.93;;
5191;SDS011;2615;44.524;11.284;2023-04-24T06:50:38;25.50;;;19.23;;
5191;SDS011;2615;44.524;11.284;2023-04-24T06:53:08;21.93;;;17.17;;
5191;SDS011;2615;44.524;11.284;2023-04-24T06:55:37;22.67;;;17.77;;
5191;SDS011;2615;44.524;11.284;2023-04-24T06:58:05;23.93;;;17.27;;
5191;SDS011;2615;44.524;11.284;2023-04-24T07:00:34;25.93;;;18.57;;
5191;SDS011;2615;44.524;11.284;2023-04-24T07:03:02;25.00;;;17.27;;
5191;SDS011;2615;44.524;11.284;2023-04-24T07:05:31;22.33;;;17.37;;
5191;SDS011;2615;44.524;11.284;2023-04-24T07:08:01;25.50;;;16.33;;
5191;SDS011;2615;44.524;11.284;2023-04-24T07:10:31;17.10;;;14.30;;
5191;SDS011;2615;44.524;11.284;2023-04-24T07:13:01;17.00;;;14.90;;
5191;SDS011;2615;44.524;11.284;2023-04-24T07:15:29;17.57;;;14.63;;
5191;SDS011;2615;44.524;11.284;2023-04-24T07:17:58;19.77;;;13.90;;
5191;SDS011;2615;44.524;11.284;2023-04-24T07:20:30;17.87;;;13.70;;
5191;SDS011;2615;44.524;11.284;2023-04-24T07:22:59;21.40;;;13.53;;
5191;SDS011;2615;44.524;11.284;2023-04-24T07:25:27;17.37;;;12.70;;
5191;SDS011;2615;44.524;11.284;2023-04-24T07:27:57;16.30;;;12.80;;
5191;SDS011;2615;44.524;11.284;2023-04-24T07:30:25;17.37;;;13.97;;
5191;SDS011;2615;44.524;11.284;2023-04-24T07:32:55;14.30;;;12.37;;
5191;SDS011;2615;44.524;11.284;2023-04-24T07:35:23;16.63;;;12.30;;
5191;SDS011;2615;44.524;11.284;2023-04-24T07:37:52;14.60;;;13.10;;
5191;SDS011;2615;44.524;11.284;2023-04-24T07:40:20;21.27;;;13.17;;
5191;SDS011;2615;44.524;11.284;2023-04-24T07:42:49;16.20;;;12.93;;
5191;SDS011;2615;44.524;11.284;2023-04-24T07:45:19;13.87;;;12.13;;
5191;SDS011;2615;44.524;11.284;2023-04-24T07:47:47;14.13;;;10.63;;
5191;SDS011;2615;44.524;11.284;2023-04-24T07:50:15;16.90;;;12.17;;
5191;SDS011;2615;44.524;11.284;2023-04-24T07:52:43;15.10;;;12.10;;
5191;SDS011;2615;44.524;11.284;2023-04-24T07:55:11;13.50;;;10.10;;
5191;SDS011;2615;44.524;11.284;2023-04-24T07:57:39;10.73;;;9.20;;
5191;SDS011;2615;44.524;11.284;2023-04-24T08:00:08;13.40;;;9.27;;
5191;SDS011;2615;44.524;11.284;2023-04-24T08:02:38;10.83;;;9.03;;
5191;SDS011;2615;44.524;11.284;2023-04-24T08:05:06;11.50;;;8.47;;
5191;SDS011;2615;44.524;11.284;2023-04-24T08:07:35;9.70;;;7.97;;
5191;SDS011;2615;44.524;11.284;2023-04-24T08:10:04;8.60;;;7.17;;
5191;SDS011;2615;44.524;11.284;2023-04-24T08:12:32;13.20;;;8.03;;
5191;SDS011;2615;44.524;11.284;2023-04-24T08:15:01;14.20;;;7.87;;
5191;SDS011;2615;44.524;11.284;2023-04-24T08:17:29;8.67;;;7.23;;
5191;SDS011;2615;44.524;11.284;2023-04-24T08:19:58;8.57;;;6.83;;
5191;SDS011;2615;44.524;11.284;2023-04-24T08:22:28;19.57;;;6.90;;
5191;SDS011;2615;44.524;11.284;2023-04-24T08:24:56;9.27;;;5.83;;
5191;SDS011;2615;44.524;11.284;2023-04-24T08:27:25;11.90;;;5.77;;
5191;SDS011;2615;44.524;11.284;2023-04-24T08:29:54;10.13;;;5.87;;
5191;SDS011;2615;44.524;11.284;2023-04-24T08:32:25;10.30;;;7.30;;
5191;SDS011;2615;44.524;11.284;2023-04-24T08:34:59;12.00;;;9.70;;
5191;SDS011;2615;44.524;11.284;2023-04-24T08:37:27;13.13;;;9.37;;
5191;SDS011;2615;44.524;11.284;2023-04-24T08:39:55;18.60;;;11.87;;
5191;SDS011;2615;44.524;11.284;2023-04-24T08:42:23;12.87;;;10.47;;
5191;SDS011;2615;44.524;11.284;2023-04-24T08:44:52;14.00;;;10.57;;
5191;SDS011;2615;44.524;11.284;2023-04-24T08:47:23;14.17;;;10.90;;
5191;SDS011;2615;44.524;11.284;2023-04-24T08:49:53;13.10;;;11.03;;
5191;SDS011;2615;44.524;11.284;2023-04-24T08:52:23;15.97;;;10.57;;
5191;SDS011;2615;44.524;11.284;2023-04-24T08:54:54;12.23;;;9.60;;
5191;SDS011;2615;44.524;11.284;2023-04-24T08:57:23;12.80;;;10.53;;
5191;SDS011;2615;44.524;11.284;2023-04-24T08:59:53;18.63;;;11.23;;
5191;SDS011;2615;44.524;11.284;2023-04-24T09:02:22;11.33;;;9.60;;
5191;SDS011;2615;44.524;11.284;2023-04-24T09:04:51;18.20;;;11.30;;
5191;SDS011;2615;44.524;11.284;2023-04-24T09:07:20;13.30;;;8.40;;
5191;SDS011;2615;44.524;11.284;2023-04-24T09:09:52;10.00;;;6.47;;
5191;SDS011;2615;44.524;11.284;2023-04-24T09:12:21;13.53;;;8.80;;
5191;SDS011;2615;44.524;11.284;2023-04-24T09:14:49;15.63;;;11.00;;
5191;SDS011;2615;44.524;11.284;2023-04-24T09:17:18;12.83;;;10.90;;
5191;SDS011;2615;44.524;11.284;2023-04-24T09:19:49;13.40;;;11.00;;
5191;SDS011;2615;44.524;11.284;2023-04-24T09:22:17;13.17;;;11.70;;
5191;SDS011;2615;44.524;11.284;2023-04-24T09:24:47;13.40;;;11.30;;
5191;SDS011;2615;44.524;11.284;2023-04-24T09:27:15;13.97;;;10.67;;
5191;SDS011;2615;44.524;11.284;2023-04-24T09:29:53;12.43;;;10.70;;
5191;SDS011;2615;44.524;11.284;2023-04-24T09:32:22;13.63;;;10.10;;
5191;SDS011;2615;44.524;11.284;2023-04-24T09:35:04;10.93;;;7.20;;
5191;SDS011;2615;44.524;11.284;2023-04-24T09:37:37;18.40;;;6.63;;
5191;SDS011;2615;44.524;11.284;2023-04-24T09:40:12;8.40;;;6.40;;
5191;SDS011;2615;44.524;11.284;2023-04-24T09:42:43;9.50;;;5.87;;
5191;SDS011;2615;44.524;11.284;2023-04-24T09:45:12;7.03;;;4.30;;
5191;SDS011;2615;44.524;11.284;2023-04-24T09:47:41;5.07;;;3.53;;
5191;SDS011;2615;44.524;11.284;2023-04-24T09:50:11;7.40;;;3.60;;
5191;SDS011;2615;44.524;11.284;2023-04-24T09:52:42;5.37;;;3.20;;
5191;SDS011;2615;44.524;11.284;2023-04-24T09:55:13;6.40;;;3.27;;
5191;SDS011;2615;44.524;11.284;2023-04-24T09:57:48;3.87;;;2.70;;
5191;SDS011;2615;44.524;11.284;2023-04-24T10:00:24;6.27;;;3.33;;
5191;SDS011;2615;44.524;11.284;2023-04-24T10:02:57;3.97;;;2.90;;
5191;SDS011;2615;44.524;11.284;2023-04-24T10:05:30;5.07;;;3.57;;
5191;SDS011;2615;44.524;11.284;2023-04-24T10:08:02;6.63;;;2.97;;
5191;SDS011;2615;44.524;11.284;2023-04-24T10:10:33;4.40;;;3.40;;
5191;SDS011;2615;44.524;11.284;2023-04-24T10:13:07;9.00;;;3.73;;
5191;SDS011;2615;44.524;11.284;2023-04-24T10:15:37;5.53;;;3.17;;
5191;SDS011;2615;44.524;11.284;2023-04-24T10:18:06;8.53;;;3.50;;
5191;SDS011;2615;44.524;11.284;2023-04-24T10:20:36;8.23;;;4.40;;
5191;SDS011;2615;44.524;11.284;2023-04-24T10:23:06;4.83;;;3.60;;
5191;SDS011;2615;44.524;11.284;2023-04-24T10:25:35;13.10;;;4.30;;
5191;SDS011;2615;44.524;11.284;2023-04-24T10:28:04;10.93;;;4.63;;
5191;SDS011;2615;44.524;11.284;2023-04-24T10:30:36;9.83;;;4.30;;
5191;SDS011;2615;44.524;11.284;2023-04-24T10:33:05;8.43;;;4.20;;
5191;SDS011;2615;44.524;11.284;2023-04-24T10:35:36;6.07;;;3.70;;
5191;SDS011;2615;44.524;11.284;2023-04-24T10:38:08;6.77;;;4.60;;
5191;SDS011;2615;44.524;11.284;2023-04-24T10:40:40;6.30;;;4.67;;
5191;SDS011;2615;44.524;11.284;2023-04-24T10:43:09;5.40;;;4.37;;
5191;SDS011;2615;44.524;11.284;2023-04-24T10:45:37;7.47;;;5.27;;
5191;SDS011;2615;44.524;11.284;2023-04-24T10:48:06;6.50;;;4.20;;
5191;SDS011;2615;44.524;11.284;2023-04-24T10:50:44;5.97;;;4.10;;
5191;SDS011;2615;44.524;11.284;2023-04-24T10:53:13;5.77;;;3.90;;
5191;SDS011;2615;44.524;11.284;2023-04-24T10:55:45;7.93;;;4.93;;
5191;SDS011;2615;44.524;11.284;2023-04-24T10:58:15;13.93;;;4.70;;
5191;SDS011;2615;44.524;11.284;2023-04-24T11:00:44;8.50;;;4.83;;
5191;SDS011;2615;44.524;11.284;2023-04-24T11:03:23;6.50;;;4.20;;
5191;SDS011;2615;44.524;11.284;2023-04-24T11:05:54;7.53;;;5.13;;
5191;SDS011;2615;44.524;11.284;2023-04-24T11:08:24;56.30;;;9.23;;
5191;SDS011;2615;44.524;11.284;2023-04-24T11:10:59;8.13;;;4.63;;
5191;SDS011;2615;44.524;11.284;2023-04-24T11:16:29;12.60;;;5.37;;
5191;SDS011;2615;44.524;11.284;2023-04-24T11:19:01;8.33;;;5.23;;
5191;SDS011;2615;44.524;11.284;2023-04-24T11:21:40;5.40;;;3.97;;
5191;SDS011;2615;44.524;11.284;2023-04-24T11:24:22;6.07;;;4.43;;
5191;SDS011;2615;44.524;11.284;2023-04-24T11:26:53;5.10;;;4.10;;
5191;SDS011;2615;44.524;11.284;2023-04-24T11:29:22;11.70;;;5.60;;
5191;SDS011;2615;44.524;11.284;2023-04-24T11:32:13;6.97;;;4.60;;
5191;SDS011;2615;44.524;11.284;2023-04-24T11:34:48;7.83;;;4.60;;
5191;SDS011;2615;44.524;11.284;2023-04-24T11:37:17;11.53;;;5.80;;
5191;SDS011;2615;44.524;11.284;2023-04-24T11:39:45;9.47;;;5.40;;
5191;SDS011;2615;44.524;11.284;2023-04-24T11:42:15;10.87;;;4.73;;
5191;SDS011;2615;44.524;11.284;2023-04-24T11:44:43;7.77;;;4.77;;
5191;SDS011;2615;44.524;11.284;2023-04-24T11:47:14;7.40;;;5.40;;
5191;SDS011;2615;44.524;11.284;2023-04-24T11:49:42;6.90;;;5.03;;
5191;SDS011;2615;44.524;11.284;2023-04-24T11:52:10;7.00;;;4.93;;
5191;SDS011;2615;44.524;11.284;2023-04-24T11:54:38;7.20;;;4.80;;
5191;SDS011;2615;44.524;11.284;2023-04-24T11:57:16;7.07;;;5.63;;
5191;SDS011;2615;44.524;11.284;2023-04-24T11:59:48;11.93;;;6.03;;
5191;SDS011;2615;44.524;11.284;2023-04-24T12:02:20;9.93;;;5.10;;
5191;SDS011;2615;44.524;11.284;2023-04-24T12:04:53;9.33;;;5.30;;
5191;SDS011;2615;44.524;11.284;2023-04-24T12:07:22;6.00;;;4.93;;
5191;SDS011;2615;44.524;11.284;2023-04-24T12:09:55;6.70;;;4.63;;
5191;SDS011;2615;44.524;11.284;2023-04-24T12:12:26;7.03;;;4.17;;
5191;SDS011;2615;44.524;11.284;2023-04-24T12:14:55;6.23;;;4.60;;
5191;SDS011;2615;44.524;11.284;2023-04-24T12:17:25;7.00;;;4.60;;
5191;SDS011;2615;44.524;11.284;2023-04-24T12:19:57;6.43;;;4.00;;
5191;SDS011;2615;44.524;11.284;2023-04-24T12:22:26;5.37;;;4.03;;
5191;SDS011;2615;44.524;11.284;2023-04-24T12:24:55;8.27;;;5.13;;
5191;SDS011;2615;44.524;11.284;2023-04-24T12:27:26;9.93;;;4.20;;
5191;SDS011;2615;44.524;11.284;2023-04-24T12:29:56;6.87;;;4.70;;
5191;SDS011;2615;44.524;11.284;2023-04-24T12:32:25;6.30;;;4.77;;
5191;SDS011;2615;44.524;11.284;2023-04-24T12:34:54;7.70;;;5.20;;
5191;SDS011;2615;44.524;11.284;2023-04-24T12:37:23;5.23;;;4.37;;
5191;SDS011;2615;44.524;11.284;2023-04-24T12:39:58;8.77;;;5.60;;
5191;SDS011;2615;44.524;11.284;2023-04-24T12:42:29;7.57;;;4.53;;
5191;SDS011;2615;44.524;11.284;2023-04-24T12:44:59;9.23;;;4.77;;
5191;SDS011;2615;44.524;11.284;2023-04-24T12:47:28;7.73;;;4.20;;
5191;SDS011;2615;44.524;11.284;2023-04-24T12:49:56;5.13;;;3.63;;
5191;SDS011;2615;44.524;11.284;2023-04-24T12:52:25;7.50;;;4.33;;
5191;SDS011;2615;44.524;11.284;2023-04-24T12:54:55;4.30;;;3.87;;
5191;SDS011;2615;44.524;11.284;2023-04-24T12:57:24;7.70;;;4.60;;
5191;SDS011;2615;44.524;11.284;2023-04-24T12:59:55;8.37;;;5.10;;
5191;SDS011;2615;44.524;11.284;2023-04-24T13:02:23;7.00;;;4.00;;
5191;SDS011;2615;44.524;11.284;2023-04-24T13:04:52;6.10;;;3.90;;
5191;SDS011;2615;44.524;11.284;2023-04-24T13:07:21;5.13;;;3.80;;
5191;SDS011;2615;44.524;11.284;2023-04-24T13:09:49;8.63;;;4.33;;
5191;SDS011;2615;44.524;11.284;2023-04-24T13:12:18;5.63;;;3.20;;
5191;SDS011;2615;44.524;11.284;2023-04-24T13:14:47;4.20;;;3.10;;
5191;SDS011;2615;44.524;11.284;2023-04-24T13:17:17;5.97;;;4.00;;
5191;SDS011;2615;44.524;11.284;2023-04-24T13:19:45;7.07;;;3.70;;
5191;SDS011;2615;44.524;11.284;2023-04-24T13:22:13;4.47;;;3.50;;
5191;SDS011;2615;44.524;11.284;2023-04-24T13:24:41;5.90;;;4.17;;
5191;SDS011;2615;44.524;11.284;2023-04-24T13:27:10;19.30;;;6.67;;
5191;SDS011;2615;44.524;11.284;2023-04-24T13:29:38;5.87;;;3.80;;
5191;SDS011;2615;44.524;11.284;2023-04-24T13:32:07;5.40;;;3.67;;
5191;SDS011;2615;44.524;11.284;2023-04-24T13:34:37;4.93;;;3.23;;
5191;SDS011;2615;44.524;11.284;2023-04-24T13:37:05;4.93;;;3.60;;
5191;SDS011;2615;44.524;11.284;2023-04-24T13:39:34;3.70;;;2.80;;
5191;SDS011;2615;44.524;11.284;2023-04-24T13:42:02;5.90;;;3.67;;
5191;SDS011;2615;44.524;11.284;2023-04-24T13:44:30;4.67;;;3.47;;
5191;SDS011;2615;44.524;11.284;2023-04-24T13:46:59;5.07;;;2.80;;
5191;SDS011;2615;44.524;11.284;2023-04-24T13:49:27;5.13;;;3.43;;
5191;SDS011;2615;44.524;11.284;2023-04-24T13:51:57;4.60;;;3.40;;
5191;SDS011;2615;44.524;11.284;2023-04-24T13:54:25;5.30;;;3.30;;
5191;SDS011;2615;44.524;11.284;2023-04-24T13:56:55;4.63;;;3.40;;
5191;SDS011;2615;44.524;11.284;2023-04-24T13:59:25;5.07;;;3.93;;
5191;SDS011;2615;44.524;11.284;2023-04-24T14:01:53;5.43;;;3.17;;
5191;SDS011;2615;44.524;11.284;2023-04-24T14:04:21;3.73;;;3.10;;
5191;SDS011;2615;44.524;11.284;2023-04-24T14:06:50;4.27;;;3.10;;
5191;SDS011;2615;44.524;11.284;2023-04-24T14:09:20;4.23;;;3.50;;
5191;SDS011;2615;44.524;11.284;2023-04-24T14:11:48;5.17;;;3.00;;
5191;SDS011;2615;44.524;11.284;2023-04-24T14:14:16;6.60;;;3.53;;
5191;SDS011;2615;44.524;11.284;2023-04-24T14:16:44;5.50;;;3.40;;
5191;SDS011;2615;44.524;11.284;2023-04-24T14:19:12;4.67;;;3.30;;
5191;SDS011;2615;44.524;11.284;2023-04-24T14:21:40;7.40;;;3.10;;
5191;SDS011;2615;44.524;11.284;2023-04-24T14:24:08;5.30;;;3.80;;
5191;SDS011;2615;44.524;11.284;2023-04-24T14:26:38;3.90;;;3.30;;
5191;SDS011;2615;44.524;11.284;2023-04-24T14:29:06;4.40;;;3.33;;
5191;SDS011;2615;44.524;11.284;2023-04-24T14:31:40;3.60;;;2.53;;
5191;SDS011;2615;44.524;11.284;2023-04-24T14:34:09;5.00;;;3.53;;
5191;SDS011;2615;44.524;11.284;2023-04-24T14:36:37;5.23;;;3.33;;
5191;SDS011;2615;44.524;11.284;2023-04-24T14:39:05;4.33;;;3.53;;
5191;SDS011;2615;44.524;11.284;2023-04-24T14:41:34;9.57;;;3.40;;
5191;SDS011;2615;44.524;11.284;2023-04-24T14:44:04;4.43;;;3.10;;
5191;SDS011;2615;44.524;11.284;2023-04-24T14:46:33;5.83;;;3.30;;
5191;SDS011;2615;44.524;11.284;2023-04-24T14:49:01;3.87;;;3.40;;
5191;SDS011;2615;44.524;11.284;2023-04-24T14:51:29;4.20;;;3.60;;
5191;SDS011;2615;44.524;11.284;2023-04-24T14:53:58;3.93;;;3.20;;
5191;SDS011;2615;44.524;11.284;2023-04-24T14:56:26;4.33;;;2.77;;
5191;SDS011;2615;44.524;11.284;2023-04-24T14:58:54;5.23;;;3.20;;
5191;SDS011;2615;44.524;11.284;2023-04-24T15:01:24;4.40;;;3.27;;
5191;SDS011;2615;44.524;11.284;2023-04-24T15:03:52;3.63;;;2.80;;
5191;SDS011;2615;44.524;11.284;2023-04-24T15:06:20;5.23;;;2.93;;